sensor_id;sensor_type;location;lat;lon;timestamp;P1;P2;P0
79317;PMS7003;68779;50.036;19.964;2024-02-26T00:06:12;20;18;12
79317;PMS7003;68779;50.036;19.964;2024-02-26T00:36:26;22;21;15
79317;PMS7003;68779;50.036;19.964;2024-02-26T01:06:40;26;23;15
79317;PMS7003;68779;50.036;19.964;2024-02-26T02:07:23;27;20;15
79317;PMS7003;68779;50.036;19.964;2024-02-26T02:37:39;22;21;16
79317;PMS7003;68779;50.036;19.964;2024-02-26T03:07:53;26;23;16
79317;PMS7003;68779;50.036;19.964;2024-02-26T03:38:09;26;23;17
79317;PMS7003;68779;50.036;19.964;2024-02-26T04:08:24;26;24;17
79317;PMS7003;68779;50.036;19.964;2024-02-26T04:38:37;31;27;18
79317;PMS7003;68779;50.036;19.964;2024-02-26T05:08:51;28;27;19
79317;PMS7003;68779;50.036;19.964;2024-02-26T05:39:05;28;27;18
79317;PMS7003;68779;50.036;19.964;2024-02-26T06:09:25;31;26;17
79317;PMS7003;68779;50.036;19.964;2024-02-26T06:39:38;28;27;17
79317;PMS7003;68779;50.036;19.964;2024-02-26T07:40:23;43;33;22
79317;PMS7003;68779;50.036;19.964;2024-02-26T08:10:37;35;32;23
79317;PMS7003;68779;50.036;19.964;2024-02-26T08:40:51;31;27;20
79317;PMS7003;68779;50.036;19.964;2024-02-26T09:11:06;17;16;12
79317;PMS7003;68779;50.036;19.964;2024-02-26T09:41:21;13;13;9
79317;PMS7003;68779;50.036;19.964;2024-02-26T10:11:35;9;8;6
79317;PMS7003;68779;50.036;19.964;2024-02-26T10:41:51;4;4;3
79317;PMS7003;68779;50.036;19.964;2024-02-26T11:12:12;3;3;2
79317;PMS7003;68779;50.036;19.964;2024-02-26T11:42:29;1;1;1
79317;PMS7003;68779;50.036;19.964;2024-02-26T12:12:48;2;2;1
79317;PMS7003;68779;50.036;19.964;2024-02-26T12:43:03;5;5;4
79317;PMS7003;68779;50.036;19.964;2024-02-26T13:13:17;4;4;3
79317;PMS7003;68779;50.036;19.964;2024-02-26T14:13:53;9;9;7
79317;PMS7003;68779;50.036;19.964;2024-02-26T14:44:07;13;13;9
79317;PMS7003;68779;50.036;19.964;2024-02-26T15:14:22;17;17;12
79317;PMS7003;68779;50.036;19.964;2024-02-26T15:44:39;15;15;10
79317;PMS7003;68779;50.036;19.964;2024-02-26T16:14:55;16;16;11
79317;PMS7003;68779;50.036;19.964;2024-02-26T16:45:13;26;23;16
79317;PMS7003;68779;50.036;19.964;2024-02-26T17:15:27;28;24;18
79317;PMS7003;68779;50.036;19.964;2024-02-26T17:45:46;27;25;16
79317;PMS7003;68779;50.036;19.964;2024-02-26T18:33:05;24;21;14
79317;PMS7003;68779;50.036;19.964;2024-02-26T19:03:21;28;25;17
79317;PMS7003;68779;50.036;19.964;2024-02-26T20:04:00;31;28;18
79317;PMS7003;68779;50.036;19.964;2024-02-26T20:34:18;32;30;18
79317;PMS7003;68779;50.036;19.964;2024-02-26T21:04:37;33;28;19
79317;PMS7003;68779;50.036;19.964;2024-02-26T21:34:55;38;32;21
79317;PMS7003;68779;50.036;19.964;2024-02-26T22:35:37;40;31;19
79317;PMS7003;68779;50.036;19.964;2024-02-26T23:05:51;30;27;18
79317;PMS7003;68779;50.036;19.964;2024-02-26T23:36:05;39;34;24
